createdAt,value
2023-01-21T00:01:10.143Z,33.47
2023-01-21T00:05:11.232Z,33.70
2023-01-21T00:09:12.841Z,33.67
2023-01-21T00:13:13.700Z,35.93
2023-01-21T00:17:14.681Z,36.13
2023-01-21T00:21:15.719Z,34.37
2023-01-21T00:25:16.811Z,34.03
2023-01-21T00:29:17.893Z,33.03
2023-01-21T00:33:18.891Z,32.67
2023-01-21T00:37:20.212Z,33.27
2023-01-21T00:41:23.816Z,40.83
2023-01-21T00:45:24.932Z,45.73
2023-01-21T00:49:26.062Z,45.37
2023-01-21T00:53:28.742Z,46.13
2023-01-21T00:57:29.831Z,47.63
2023-01-21T01:01:33.094Z,45.53
2023-01-21T01:05:34.088Z,43.53
2023-01-21T01:09:35.021Z,42.47
2023-01-21T01:13:36.904Z,44.63
2023-01-21T01:17:37.832Z,44.23
2023-01-21T01:21:39.025Z,44.87
2023-01-21T01:25:40.500Z,41.93
2023-01-21T01:29:41.582Z,45.03
2023-01-21T01:33:42.758Z,41.63
2023-01-21T01:37:43.834Z,42.53
2023-01-21T01:41:44.811Z,44.47
2023-01-21T01:45:47.931Z,39.87
2023-01-21T01:49:49.224Z,39.80
2023-01-21T01:53:51.436Z,41.90
2023-01-21T01:57:54.589Z,37.60
2023-01-21T02:01:58.059Z,39.10
2023-01-21T02:05:59.077Z,37.03
2023-01-21T02:10:02.588Z,38.40
2023-01-21T02:14:04.236Z,35.90
2023-01-21T02:18:15.137Z,34.53
2023-01-21T02:22:22.895Z,35.00
2023-01-21T02:26:42.807Z,35.60
2023-01-21T02:31:08.717Z,33.63
2023-01-21T02:35:16.543Z,33.37
2023-01-21T02:39:45.816Z,34.27
2023-01-21T02:43:59.725Z,32.33
2023-01-21T02:48:07.354Z,33.03
2023-01-21T02:52:12.132Z,34.90
2023-01-21T02:56:22.997Z,32.10
2023-01-21T03:00:27.503Z,32.87
2023-01-21T03:04:50.555Z,35.10
2023-01-21T03:08:55.450Z,30.73
2023-01-21T03:13:05.085Z,33.57
2023-01-21T03:17:10.002Z,34.03
2023-01-21T03:21:17.594Z,37.13
2023-01-21T03:25:19.283Z,34.47
2023-01-21T03:29:26.989Z,31.93
2023-01-21T03:33:31.186Z,36.63
2023-01-21T03:37:38.874Z,34.73
2023-01-21T03:41:40.316Z,38.23
2023-01-21T03:45:45.136Z,35.97
2023-01-21T03:49:55.445Z,34.67
2023-01-21T03:53:58.428Z,37.57
2023-01-21T03:57:59.658Z,39.00
2023-01-21T04:02:00.787Z,40.97
2023-01-21T04:06:01.876Z,36.57
2023-01-21T04:10:03.152Z,38.60
2023-01-21T04:14:04.272Z,36.27
2023-01-21T04:18:05.437Z,36.70
2023-01-21T04:22:06.593Z,37.73
2023-01-21T04:26:07.720Z,37.10
2023-01-21T04:30:09.713Z,39.03
2023-01-21T04:34:11.089Z,37.27
2023-01-21T04:38:12.469Z,40.97
2023-01-21T04:42:13.711Z,37.47
2023-01-21T04:46:14.726Z,39.13
2023-01-21T04:50:16.839Z,39.60
2023-01-21T04:54:18.210Z,38.47
2023-01-21T04:58:20.089Z,41.50
2023-01-21T05:02:21.150Z,38.77
2023-01-21T05:06:23.529Z,39.60
2023-01-21T05:10:24.628Z,40.60
2023-01-21T05:14:25.763Z,40.93
2023-01-21T05:18:26.887Z,39.67
2023-01-21T05:22:27.868Z,38.83
2023-01-21T05:26:29.002Z,38.47
2023-01-21T05:30:30.191Z,39.80
2023-01-21T05:34:31.337Z,38.30
2023-01-21T05:38:32.319Z,38.00
2023-01-21T05:42:33.344Z,35.80
2023-01-21T05:46:34.641Z,35.57
2023-01-21T05:50:37.886Z,35.73
2023-01-21T05:54:49.149Z,39.77
2023-01-21T05:58:41.778Z,33.67
2023-01-21T06:02:42.820Z,32.93
2023-01-21T06:06:44.028Z,32.80
2023-01-21T06:10:45.143Z,37.27
2023-01-21T06:14:46.287Z,36.60
2023-01-21T06:18:47.230Z,33.73
2023-01-21T06:22:48.397Z,36.07
2023-01-21T06:26:49.365Z,35.50
2023-01-21T06:30:50.454Z,34.97
2023-01-21T06:34:51.602Z,30.57
2023-01-21T06:38:52.606Z,31.70
2023-01-21T06:42:53.923Z,35.07
2023-01-21T06:47:02.370Z,33.10
2023-01-21T06:51:00.330Z,32.67
2023-01-21T06:55:01.295Z,32.80
2023-01-21T06:59:03.743Z,30.43
2023-01-21T07:03:04.949Z,31.60
2023-01-21T07:07:06.138Z,32.47
2023-01-21T07:11:07.284Z,34.10
2023-01-21T07:15:09.021Z,32.93
2023-01-21T07:19:11.026Z,32.80
2023-01-21T07:23:12.312Z,32.10
2023-01-21T07:27:13.457Z,31.47
2023-01-21T07:31:16.080Z,27.33
2023-01-21T07:35:17.457Z,32.20
2023-01-21T07:39:18.465Z,29.10
2023-01-21T07:43:19.551Z,26.80
2023-01-21T07:47:20.499Z,29.90
2023-01-21T07:51:21.951Z,26.07
2023-01-21T07:55:23.092Z,24.23
2023-01-21T07:59:24.030Z,27.40
2023-01-21T08:03:25.630Z,25.63
2023-01-21T08:07:26.605Z,25.53
2023-01-21T08:11:28.435Z,22.20
2023-01-21T08:15:29.565Z,24.83
2023-01-21T08:19:30.634Z,24.27
2023-01-21T08:23:31.546Z,24.67
2023-01-21T08:27:32.622Z,22.73
2023-01-21T08:31:34.114Z,21.10
2023-01-21T08:35:35.019Z,24.10
2023-01-21T08:39:36.094Z,21.37
2023-01-21T08:43:37.063Z,22.90
2023-01-21T08:47:38.043Z,22.37
2023-01-21T08:51:39.207Z,22.60
2023-01-21T08:55:40.276Z,20.87
2023-01-21T08:59:41.204Z,22.47
2023-01-21T09:03:42.583Z,23.67
2023-01-21T09:07:45.205Z,24.70
2023-01-21T09:11:46.306Z,22.03
2023-01-21T09:15:47.615Z,24.57
2023-01-21T09:19:49.263Z,24.40
2023-01-21T09:23:50.358Z,23.37
2023-01-21T09:27:51.600Z,22.53
2023-01-21T09:31:52.600Z,27.67
2023-01-21T09:35:55.313Z,25.10
2023-01-21T09:39:56.339Z,25.33
2023-01-21T09:44:07.134Z,24.87
2023-01-21T09:48:09.268Z,24.87
2023-01-21T09:52:31.688Z,25.70
2023-01-21T09:56:57.386Z,22.97
2023-01-21T10:01:02.286Z,23.73
2023-01-21T10:05:25.329Z,24.07
2023-01-21T10:09:53.967Z,21.83
2023-01-21T10:14:21.237Z,22.47
2023-01-21T10:18:30.709Z,20.87
2023-01-21T10:22:31.389Z,20.40
2023-01-21T10:26:34.342Z,24.43
2023-01-21T10:30:41.339Z,22.87
2023-01-21T10:34:46.083Z,22.77
2023-01-21T10:39:11.320Z,22.50
2023-01-21T10:43:32.547Z,21.27
2023-01-21T10:47:47.020Z,20.33
2023-01-21T10:51:51.938Z,22.20
2023-01-21T10:56:12.303Z,20.67
2023-01-21T11:00:26.221Z,21.27
2023-01-21T11:04:28.175Z,20.60
2023-01-21T11:08:29.849Z,18.20
2023-01-21T11:12:32.104Z,21.53
2023-01-21T11:16:36.172Z,19.07
2023-01-21T11:20:42.454Z,19.23
2023-01-21T11:24:45.964Z,18.03
2023-01-21T11:28:47.112Z,18.00
2023-01-21T11:32:48.030Z,16.60
2023-01-21T11:36:58.095Z,17.73
2023-01-21T11:41:14.916Z,16.73
2023-01-21T11:45:36.080Z,18.17
2023-01-21T11:49:40.946Z,16.63
2023-01-21T11:53:42.007Z,17.03
2023-01-21T11:57:46.565Z,16.70
2023-01-21T12:01:54.511Z,15.83
2023-01-21T12:05:55.746Z,17.03
2023-01-21T12:10:09.790Z,14.97
2023-01-21T12:14:17.637Z,16.80
2023-01-21T12:18:43.724Z,12.97
2023-01-21T12:22:57.224Z,15.83
2023-01-21T12:27:10.549Z,15.60
2023-01-21T12:31:17.363Z,14.67
2023-01-21T12:35:37.255Z,14.77
2023-01-21T12:39:40.446Z,15.50
2023-01-21T12:43:45.846Z,13.33
2023-01-21T12:48:05.925Z,13.63
2023-01-21T12:52:10.840Z,12.30
2023-01-21T12:56:16.936Z,12.73
2023-01-21T13:00:24.801Z,13.00
2023-01-21T13:04:41.535Z,12.57
2023-01-21T13:08:54.748Z,12.27
2023-01-21T13:13:05.327Z,12.13
2023-01-21T13:17:13.771Z,11.83
2023-01-21T13:21:22.605Z,12.27
2023-01-21T13:25:36.277Z,10.57
2023-01-21T13:29:53.100Z,11.67
2023-01-21T13:34:14.815Z,10.53
2023-01-21T13:38:28.749Z,10.37
2023-01-21T13:42:51.846Z,10.60
2023-01-21T13:47:15.581Z,8.50
2023-01-21T13:51:38.002Z,9.50
2023-01-21T13:55:51.628Z,9.63
2023-01-21T14:00:14.726Z,9.93
2023-01-21T14:04:31.435Z,10.33
2023-01-21T14:08:36.413Z,12.03
2023-01-21T14:12:59.498Z,11.60
2023-01-21T14:17:04.302Z,11.30
2023-01-21T14:21:15.041Z,13.00
2023-01-21T14:25:28.790Z,12.97
2023-01-21T14:29:54.612Z,12.87
2023-01-21T14:34:05.382Z,11.90
2023-01-21T14:38:25.257Z,11.37
2023-01-21T14:42:48.466Z,13.87
2023-01-21T14:46:53.262Z,12.47
2023-01-21T14:51:07.251Z,13.10
2023-01-21T14:55:29.976Z,11.03
2023-01-21T14:59:34.769Z,11.60
2023-01-21T15:03:39.769Z,11.87
2023-01-21T15:07:46.370Z,10.40
2023-01-21T15:11:51.111Z,11.87
2023-01-21T15:16:25.168Z,11.00
2023-01-21T15:20:47.256Z,10.67
2023-01-21T15:25:16.860Z,10.80
2023-01-21T15:29:37.685Z,10.23
2023-01-21T15:33:49.275Z,11.23
2023-01-21T15:37:52.635Z,10.97
2023-01-21T15:42:06.529Z,11.83
2023-01-21T15:46:17.248Z,12.57
2023-01-21T15:50:41.503Z,11.13
2023-01-21T15:55:08.721Z,11.90
2023-01-21T15:59:22.366Z,11.67
2023-01-21T16:03:29.966Z,11.97
2023-01-21T16:07:53.530Z,12.40
2023-01-21T16:12:15.333Z,10.97
2023-01-21T16:16:26.494Z,12.03
2023-01-21T16:20:29.120Z,11.73
2023-01-21T16:24:32.867Z,13.67
2023-01-21T16:28:46.423Z,12.03
2023-01-21T16:32:48.702Z,13.23
2023-01-21T16:36:49.778Z,13.03
2023-01-21T16:41:09.427Z,13.47
2023-01-21T16:45:19.578Z,13.90
2023-01-21T16:49:20.769Z,12.33
2023-01-21T16:53:24.202Z,13.73
2023-01-21T16:57:31.082Z,13.77
2023-01-21T17:01:32.645Z,13.77
2023-01-21T17:05:36.169Z,12.80
2023-01-21T17:09:37.376Z,13.33
2023-01-21T17:13:42.257Z,13.83
2023-01-21T17:17:43.713Z,12.30
2023-01-21T17:21:49.190Z,14.13
2023-01-21T17:26:05.944Z,13.70
2023-01-21T17:30:29.512Z,13.97
2023-01-21T17:34:33.400Z,14.17
2023-01-21T17:38:39.330Z,16.90
2023-01-21T17:42:40.332Z,14.17
2023-01-21T17:46:46.572Z,14.67
2023-01-21T17:50:47.730Z,25.13
2023-01-21T17:54:49.437Z,14.97
2023-01-21T17:58:51.744Z,13.60
2023-01-21T18:02:52.950Z,35.97
2023-01-21T18:06:55.121Z,17.10
2023-01-21T18:10:56.231Z,16.07
2023-01-21T18:14:57.886Z,18.93
2023-01-21T18:18:59.338Z,21.50
2023-01-21T18:23:00.274Z,15.53
2023-01-21T18:27:01.888Z,27.13
2023-01-21T18:31:04.178Z,16.17
2023-01-21T18:35:05.640Z,16.07
2023-01-21T18:39:12.288Z,16.87
2023-01-21T18:43:14.152Z,14.60
2023-01-21T18:47:17.881Z,26.07
2023-01-21T18:51:19.652Z,15.37
2023-01-21T18:55:24.074Z,13.20
2023-01-21T18:59:26.372Z,11.47
2023-01-21T19:03:27.395Z,12.23
2023-01-21T19:07:29.051Z,12.53
2023-01-21T19:11:30.017Z,10.83
2023-01-21T19:15:31.040Z,15.53
2023-01-21T19:19:32.074Z,13.20
2023-01-21T19:23:34.833Z,10.90
2023-01-21T19:27:39.741Z,12.17
2023-01-21T19:31:40.902Z,10.83
2023-01-21T19:35:44.370Z,12.40
2023-01-21T19:39:45.846Z,13.83
2023-01-21T19:43:46.963Z,13.30
2023-01-21T19:47:50.463Z,13.87
2023-01-21T19:51:51.626Z,12.10
2023-01-21T19:55:52.971Z,14.30
2023-01-21T19:59:54.083Z,15.67
2023-01-21T20:07:59.194Z,15.73
2023-01-21T20:12:03.446Z,16.23
2023-01-21T20:16:08.102Z,18.47
2023-01-21T20:20:18.119Z,18.83
2023-01-21T20:24:19.286Z,12.57
2023-01-21T20:28:24.300Z,13.30
2023-01-21T20:32:25.854Z,12.80
2023-01-21T20:36:27.359Z,13.47
2023-01-21T20:40:30.347Z,13.23
2023-01-21T20:44:33.716Z,13.83
2023-01-21T20:48:37.613Z,13.13
2023-01-21T20:52:38.863Z,10.30
2023-01-21T20:56:40.411Z,12.30
2023-01-21T21:00:44.277Z,11.07
2023-01-21T21:04:47.079Z,11.63
2023-01-21T21:08:49.137Z,11.53
2023-01-21T21:12:50.888Z,12.40
2023-01-21T21:16:53.777Z,12.97
2023-01-21T21:20:54.824Z,11.87
2023-01-21T21:24:56.099Z,13.27
2023-01-21T21:28:57.107Z,12.60
2023-01-21T21:32:59.920Z,15.37
2023-01-21T21:37:01.151Z,15.13
2023-01-21T21:41:04.228Z,16.00
2023-01-21T21:45:06.459Z,17.57
2023-01-21T21:49:07.525Z,19.30
2023-01-21T21:53:08.715Z,18.77
2023-01-21T21:57:11.639Z,18.53
2023-01-21T22:01:18.887Z,18.97
2023-01-21T22:05:20.450Z,20.30
2023-01-21T22:09:21.715Z,16.83
2023-01-21T22:13:22.861Z,20.27
2023-01-21T22:17:24.139Z,17.77
2023-01-21T22:21:28.370Z,19.47
2023-01-21T22:25:29.806Z,18.50
2023-01-21T22:29:30.912Z,17.60
2023-01-21T22:33:32.812Z,17.47
2023-01-21T22:37:34.091Z,18.80
2023-01-21T22:41:35.107Z,17.53
2023-01-21T22:45:36.130Z,18.10
2023-01-21T22:49:37.389Z,17.97
2023-01-21T22:53:45.199Z,18.83
2023-01-21T22:57:46.305Z,16.40
2023-01-21T23:01:48.166Z,17.00
2023-01-21T23:05:50.171Z,17.67
2023-01-21T23:09:51.135Z,14.57
2023-01-21T23:13:53.907Z,15.37
2023-01-21T23:17:55.040Z,14.90
2023-01-21T23:21:56.200Z,14.70
2023-01-21T23:25:57.248Z,14.70
2023-01-21T23:29:58.338Z,15.00
2023-01-21T23:33:59.381Z,14.97
2023-01-21T23:38:01.195Z,14.17
2023-01-21T23:42:02.191Z,14.03
2023-01-21T23:46:06.560Z,14.60
2023-01-21T23:50:08.583Z,13.70
2023-01-21T23:54:12.321Z,15.20
2023-01-21T23:58:13.575Z,13.63
